Time;durP1;ratioP1;P1;durP2;ratioP2;P2;SDS_P1;SDS_P2;PMS_P1;PMS_P2;Temp;Humidity;BMP_temperature;BMP_pressure;BME280_temperature;BME280_humidity;BME280_pressure;Samples;Min_cycle;Max_cycle;Signal;HPM_P1;HPM_P2
2023/11/05 00:00:45;;;;;;;7.43;1.17;;;;;;;;;;6145669;23;20029;-73
2023/11/05 00:03:12;;;;;;;7.55;1.35;;;;;;;;;;6146308;23;20029;-71
2023/11/05 00:05:41;;;;;;;15.23;1.83;;;;;;;;;;6147931;23;20029;-74
2023/11/05 00:08:08;;;;;;;17.10;5.68;;;;;;;;;;6140637;23;20025;-75
2023/11/05 00:10:35;;;;;;;14.82;3.15;;;;;;;;;;6147591;23;20029;-74
2023/11/05 00:13:03;;;;;;;12.98;4.97;;;;;;;;;;6149402;23;20026;-75
2023/11/05 00:15:30;;;;;;;8.10;1.73;;;;;;;;;;6140571;23;20072;-73
2023/11/05 00:17:57;;;;;;;7.30;1.52;;;;;;;;;;6130251;23;20021;-74
2023/11/05 00:20:24;;;;;;;6.85;1.13;;;;;;;;;;6138575;23;20033;-75
2023/11/05 00:22:53;;;;;;;7.40;1.13;;;;;;;;;;6138672;23;20029;-72
2023/11/05 00:25:21;;;;;;;7.97;1.20;;;;;;;;;;6139496;23;20026;-75
2023/11/05 00:27:48;;;;;;;5.00;1.02;;;;;;;;;;6124115;23;20136;-70
2023/11/05 00:30:15;;;;;;;11.25;1.80;;;;;;;;;;6139360;23;20029;-73
2023/11/05 00:32:42;;;;;;;6.50;1.02;;;;;;;;;;6142838;23;20025;-73
2023/11/05 00:35:09;;;;;;;3.65;0.75;;;;;;;;;;6140966;23;20025;-71
2023/11/05 00:37:37;;;;;;;8.10;1.27;;;;;;;;;;6071886;23;20106;-75
2023/11/05 00:40:07;;;;;;;6.93;1.27;;;;;;;;;;6140439;23;20033;-74
2023/11/05 00:42:34;;;;;;;2.67;0.68;;;;;;;;;;6138778;23;20029;-73
2023/11/05 00:45:03;;;;;;;12.50;1.25;;;;;;;;;;6140169;23;20025;-76
2023/11/05 00:47:31;;;;;;;7.95;1.10;;;;;;;;;;6103798;23;20032;-74
2023/11/05 00:49:58;;;;;;;5.13;1.33;;;;;;;;;;6090567;23;20041;-73
2023/11/05 00:52:25;;;;;;;13.75;1.38;;;;;;;;;;6142614;23;20025;-73
2023/11/05 00:54:52;;;;;;;5.93;1.00;;;;;;;;;;6140459;23;20053;-73
2023/11/05 00:57:21;;;;;;;9.02;1.15;;;;;;;;;;6142522;23;20033;-71
2023/11/05 00:59:48;;;;;;;5.18;0.95;;;;;;;;;;6152670;23;20157;-74
2023/11/05 01:02:15;;;;;;;7.07;1.20;;;;;;;;;;6138162;23;20036;-75
2023/11/05 01:04:42;;;;;;;10.10;1.00;;;;;;;;;;6139047;23;20021;-72
2023/11/05 01:07:09;;;;;;;9.27;1.13;;;;;;;;;;6145231;23;20081;-73
2023/11/05 01:09:36;;;;;;;11.43;1.45;;;;;;;;;;6115421;23;20084;-72
2023/11/05 01:12:03;;;;;;;11.13;1.63;;;;;;;;;;6141303;23;20018;-75
2023/11/05 01:14:32;;;;;;;5.35;0.73;;;;;;;;;;6139514;23;20076;-71
2023/11/05 01:16:58;;;;;;;5.38;1.08;;;;;;;;;;6140362;23;20024;-74
2023/11/05 01:19:27;;;;;;;11.30;2.00;;;;;;;;;;6085493;23;20136;-74
2023/11/05 01:21:55;;;;;;;9.60;1.42;;;;;;;;;;6138133;23;21566;-71
2023/11/05 01:24:22;;;;;;;6.20;1.40;;;;;;;;;;6139286;23;20025;-73
2023/11/05 01:26:49;;;;;;;5.90;1.23;;;;;;;;;;6144692;23;20092;-72
2023/11/05 01:29:16;;;;;;;7.97;1.30;;;;;;;;;;6133386;23;20030;-72
2023/11/05 01:31:44;;;;;;;9.98;1.15;;;;;;;;;;6130840;23;20176;-74
2023/11/05 01:34:12;;;;;;;5.57;1.00;;;;;;;;;;6138176;23;20036;-71
2023/11/05 01:36:38;;;;;;;6.95;1.17;;;;;;;;;;6137927;23;20104;-73
2023/11/05 01:39:06;;;;;;;8.02;1.30;;;;;;;;;;6138279;23;20029;-75
2023/11/05 01:41:33;;;;;;;8.23;1.13;;;;;;;;;;6132121;23;20026;-76
2023/11/05 01:44:00;;;;;;;8.18;0.90;;;;;;;;;;6137869;23;20060;-73
2023/11/05 01:46:28;;;;;;;5.55;1.35;;;;;;;;;;6140611;23;20136;-73
2023/11/05 01:48:58;;;;;;;11.43;0.85;;;;;;;;;;6089876;23;20049;-72
2023/11/05 01:51:27;;;;;;;4.22;0.80;;;;;;;;;;6142256;23;20026;-74
2023/11/05 01:53:56;;;;;;;10.57;1.92;;;;;;;;;;6141673;23;20025;-74
2023/11/05 01:56:25;;;;;;;8.55;1.90;;;;;;;;;;6141653;23;20025;-72
2023/11/05 01:58:53;;;;;;;8.15;1.48;;;;;;;;;;6090582;23;20037;-76
2023/11/05 02:01:23;;;;;;;15.52;1.63;;;;;;;;;;6135110;23;20029;-73
2023/11/05 02:03:49;;;;;;;8.43;1.48;;;;;;;;;;6141424;23;20155;-77
2023/11/05 02:06:18;;;;;;;4.28;1.10;;;;;;;;;;6138379;23;20039;-76
2023/11/05 02:08:45;;;;;;;2.38;0.90;;;;;;;;;;6092461;23;20125;-72
2023/11/05 02:11:12;;;;;;;7.03;1.20;;;;;;;;;;6134509;23;20062;-73
2023/11/05 02:13:46;;;;;;;5.15;1.10;;;;;;;;;;6135216;23;20037;-76
2023/11/05 02:16:14;;;;;;;5.57;0.90;;;;;;;;;;6138420;23;20072;-74
2023/11/05 02:18:41;;;;;;;4.93;1.00;;;;;;;;;;6105485;23;20022;-72
2023/11/05 02:21:09;;;;;;;7.78;0.88;;;;;;;;;;6134608;23;20032;-73
2023/11/05 02:23:37;;;;;;;7.40;1.07;;;;;;;;;;6130169;23;20033;-73
2023/11/05 02:26:04;;;;;;;7.97;1.13;;;;;;;;;;6139538;23;20261;-75
2023/11/05 02:28:32;;;;;;;6.25;0.80;;;;;;;;;;6122346;23;20028;-74
2023/11/05 02:33:43;;;;;;;4.60;0.88;;;;;;;;;;6177668;23;20028;-65
2023/11/05 02:36:11;;;;;;;8.07;0.90;;;;;;;;;;6146788;23;20025;-65
2023/11/05 02:38:40;;;;;;;6.40;1.08;;;;;;;;;;6139024;23;20128;-64
2023/11/05 02:41:10;;;;;;;5.85;0.95;;;;;;;;;;6161700;23;20028;-65
2023/11/05 02:43:37;;;;;;;4.07;0.80;;;;;;;;;;6195653;23;20024;-64
2023/11/05 02:46:04;;;;;;;5.50;1.13;;;;;;;;;;6171975;23;20104;-66
2023/11/05 02:48:31;;;;;;;6.18;1.05;;;;;;;;;;6173779;23;20047;-67
2023/11/05 02:50:57;;;;;;;6.38;1.02;;;;;;;;;;6171353;23;20020;-66
2023/11/05 02:53:24;;;;;;;4.15;1.17;;;;;;;;;;6176370;23;20062;-65
2023/11/05 02:55:52;;;;;;;8.55;1.05;;;;;;;;;;6172012;23;20084;-64
2023/11/05 02:58:19;;;;;;;7.40;1.38;;;;;;;;;;6166471;23;20067;-66
2023/11/05 03:00:46;;;;;;;3.97;0.98;;;;;;;;;;6173311;23;20131;-64
2023/11/05 03:03:13;;;;;;;5.25;1.00;;;;;;;;;;6174715;23;20024;-64
2023/11/05 03:05:42;;;;;;;4.88;0.93;;;;;;;;;;6172002;23;20090;-63
2023/11/05 03:08:11;;;;;;;9.57;1.10;;;;;;;;;;6173061;23;20031;-64
2023/11/05 03:10:37;;;;;;;6.40;1.00;;;;;;;;;;6195535;23;20031;-64
2023/11/05 03:13:06;;;;;;;6.15;0.95;;;;;;;;;;6201683;23;20079;-66
2023/11/05 03:15:32;;;;;;;8.75;1.17;;;;;;;;;;6169681;23;20103;-64
2023/11/05 03:17:59;;;;;;;5.00;0.90;;;;;;;;;;6202494;23;20029;-64
2023/11/05 03:20:26;;;;;;;4.90;1.08;;;;;;;;;;6164700;23;20028;-64
2023/11/05 03:22:52;;;;;;;3.97;0.80;;;;;;;;;;6204743;23;20073;-64
2023/11/05 03:25:19;;;;;;;6.53;1.20;;;;;;;;;;6132806;23;20032;-64
2023/11/05 03:27:46;;;;;;;9.00;1.33;;;;;;;;;;6175406;23;20051;-67
2023/11/05 03:30:15;;;;;;;12.15;1.25;;;;;;;;;;6171911;23;20020;-65
2023/11/05 03:32:42;;;;;;;7.75;1.30;;;;;;;;;;6169398;23;20025;-64
2023/11/05 03:35:09;;;;;;;10.38;1.10;;;;;;;;;;6164565;23;20028;-64
2023/11/05 03:37:36;;;;;;;5.95;0.90;;;;;;;;;;6171406;23;20125;-65
2023/11/05 03:40:04;;;;;;;1.77;0.57;;;;;;;;;;6169314;23;20060;-65
2023/11/05 03:42:31;;;;;;;10.10;1.60;;;;;;;;;;6169258;23;20032;-65
2023/11/05 03:44:58;;;;;;;13.05;1.20;;;;;;;;;;6165217;23;20043;-64
2023/11/05 03:47:26;;;;;;;4.20;0.80;;;;;;;;;;6171672;23;20026;-65
2023/11/05 03:49:53;;;;;;;2.20;0.77;;;;;;;;;;6173650;23;20055;-64
2023/11/05 03:52:19;;;;;;;4.88;0.88;;;;;;;;;;6163167;23;20021;-64
2023/11/05 03:54:46;;;;;;;9.55;1.02;;;;;;;;;;6166340;23;20021;-63
2023/11/05 03:57:13;;;;;;;4.25;0.70;;;;;;;;;;6172163;23;20052;-65
2023/11/05 03:59:40;;;;;;;2.80;0.50;;;;;;;;;;6170731;23;20124;-64
2023/11/05 04:02:07;;;;;;;3.85;0.77;;;;;;;;;;6173763;23;20079;-65
2023/11/05 04:04:37;;;;;;;2.42;0.68;;;;;;;;;;6161430;23;20033;-64
2023/11/05 04:07:06;;;;;;;3.30;0.85;;;;;;;;;;6170491;23;20056;-64
2023/11/05 04:09:33;;;;;;;4.00;0.68;;;;;;;;;;6175832;23;20021;-64
2023/11/05 04:12:00;;;;;;;3.95;0.77;;;;;;;;;;6174040;23;20087;-65
2023/11/05 04:14:26;;;;;;;3.60;0.60;;;;;;;;;;6155569;23;20044;-64
2023/11/05 04:16:54;;;;;;;1.85;0.65;;;;;;;;;;6174018;23;20053;-64
2023/11/05 04:19:21;;;;;;;2.63;0.60;;;;;;;;;;6174094;23;20044;-64
2023/11/05 04:21:49;;;;;;;3.20;0.68;;;;;;;;;;6172742;23;20026;-64
2023/11/05 04:24:15;;;;;;;1.77;0.60;;;;;;;;;;6159659;23;20017;-65
2023/11/05 04:26:42;;;;;;;4.70;0.75;;;;;;;;;;6177079;23;20041;-64
2023/11/05 04:29:10;;;;;;;6.78;0.70;;;;;;;;;;6173496;23;20021;-64
2023/11/05 04:31:37;;;;;;;3.92;0.75;;;;;;;;;;6172318;23;20083;-65
2023/11/05 04:34:04;;;;;;;4.20;0.82;;;;;;;;;;6172240;23;20067;-66
2023/11/05 04:36:31;;;;;;;4.00;0.70;;;;;;;;;;6170702;23;20028;-65
2023/11/05 04:38:59;;;;;;;0.82;0.50;;;;;;;;;;6176362;23;20020;-65
2023/11/05 04:41:26;;;;;;;5.38;0.73;;;;;;;;;;6179082;23;20080;-65
2023/11/05 04:43:52;;;;;;;4.03;0.70;;;;;;;;;;6160114;23;20063;-65
2023/11/05 04:46:19;;;;;;;4.43;0.65;;;;;;;;;;6170719;23;20055;-65
2023/11/05 04:48:45;;;;;;;1.45;0.57;;;;;;;;;;6204647;23;20102;-64
2023/11/05 04:51:12;;;;;;;1.25;0.63;;;;;;;;;;6175781;23;20025;-66
2023/11/05 04:53:39;;;;;;;2.20;0.68;;;;;;;;;;6171667;23;20317;-65
2023/11/05 04:56:08;;;;;;;1.48;0.57;;;;;;;;;;6178347;23;20021;-65
2023/11/05 04:58:34;;;;;;;1.13;0.60;;;;;;;;;;6170251;23;21981;-65
2023/11/05 05:01:01;;;;;;;4.68;0.68;;;;;;;;;;6199800;23;20047;-66
2023/11/05 05:03:28;;;;;;;2.55;0.65;;;;;;;;;;6196498;23;20103;-64
2023/11/05 05:05:55;;;;;;;1.15;0.65;;;;;;;;;;6201053;23;20029;-64
2023/11/05 05:08:22;;;;;;;1.63;0.57;;;;;;;;;;6162374;23;20098;-65
2023/11/05 05:10:48;;;;;;;3.63;0.80;;;;;;;;;;6197586;23;20029;-64
2023/11/05 05:13:16;;;;;;;3.75;0.95;;;;;;;;;;6172432;23;20024;-65
2023/11/05 05:15:43;;;;;;;3.20;0.70;;;;;;;;;;6101510;23;20021;-65
2023/11/05 05:18:10;;;;;;;1.83;0.68;;;;;;;;;;6169711;23;20103;-65
2023/11/05 05:20:37;;;;;;;4.50;0.90;;;;;;;;;;6171009;23;20176;-63
2023/11/05 05:23:04;;;;;;;4.13;0.80;;;;;;;;;;6200787;23;20090;-64
2023/11/05 05:25:31;;;;;;;5.47;0.70;;;;;;;;;;6192008;23;20107;-64
2023/11/05 05:27:58;;;;;;;3.83;0.82;;;;;;;;;;6175840;23;20052;-64
2023/11/05 05:30:26;;;;;;;1.95;0.65;;;;;;;;;;6162443;23;20113;-65
2023/11/05 05:32:53;;;;;;;2.95;0.85;;;;;;;;;;6173803;23;20029;-65
2023/11/05 05:35:20;;;;;;;3.92;0.82;;;;;;;;;;6135863;23;20090;-65
2023/11/05 05:37:46;;;;;;;1.38;0.63;;;;;;;;;;6174242;23;20108;-65
2023/11/05 05:40:13;;;;;;;3.70;0.82;;;;;;;;;;6165170;23;20048;-65
2023/11/05 05:42:41;;;;;;;3.60;0.90;;;;;;;;;;6175689;23;21351;-64
2023/11/05 05:45:08;;;;;;;8.67;1.20;;;;;;;;;;6139716;23;20199;-64
2023/11/05 05:47:36;;;;;;;3.22;1.00;;;;;;;;;;6170736;23;20112;-64
2023/11/05 05:50:10;;;;;;;6.22;1.08;;;;;;;;;;6195689;23;20031;-65
2023/11/05 05:52:39;;;;;;;3.03;1.15;;;;;;;;;;6167842;23;20032;-65
2023/11/05 05:55:09;;;;;;;2.55;1.20;;;;;;;;;;6149120;23;20488;-63
2023/11/05 05:57:36;;;;;;;5.40;2.10;;;;;;;;;;6170194;23;20024;-63
2023/11/05 06:00:09;;;;;;;6.35;2.70;;;;;;;;;;6168299;23;20124;-66
2023/11/05 06:02:38;;;;;;;8.98;2.70;;;;;;;;;;6162321;23;20029;-65
2023/11/05 06:05:09;;;;;;;9.30;2.80;;;;;;;;;;6190362;23;20110;-66
2023/11/05 06:07:36;;;;;;;8.10;2.08;;;;;;;;;;6200771;23;20066;-65
2023/11/05 06:10:05;;;;;;;5.45;2.05;;;;;;;;;;6170217;23;20043;-66
2023/11/05 06:12:35;;;;;;;9.20;1.70;;;;;;;;;;6167487;23;20028;-64
2023/11/05 06:15:02;;;;;;;5.82;2.08;;;;;;;;;;6162330;23;20110;-67
2023/11/05 06:17:38;;;;;;;5.07;1.45;;;;;;;;;;6200060;23;20024;-66
2023/11/05 06:20:09;;;;;;;5.93;1.70;;;;;;;;;;6196884;23;20024;-66
2023/11/05 06:22:36;;;;;;;5.90;1.17;;;;;;;;;;6199326;23;20031;-66
2023/11/05 06:25:05;;;;;;;7.60;1.70;;;;;;;;;;6167900;23;20110;-65
2023/11/05 06:27:34;;;;;;;3.67;1.30;;;;;;;;;;6200063;23;20059;-66
2023/11/05 06:30:03;;;;;;;4.28;1.15;;;;;;;;;;6174339;23;20029;-66
2023/11/05 06:32:30;;;;;;;3.22;1.52;;;;;;;;;;6157528;23;20037;-65
2023/11/05 06:34:58;;;;;;;5.45;1.55;;;;;;;;;;6160970;23;20029;-65
2023/11/05 06:37:25;;;;;;;7.70;1.40;;;;;;;;;;6190387;23;20059;-65
2023/11/05 06:39:52;;;;;;;5.53;1.60;;;;;;;;;;6165062;23;20087;-64
2023/11/05 06:42:18;;;;;;;5.53;1.85;;;;;;;;;;6160142;23;20025;-65
2023/11/05 06:44:46;;;;;;;7.22;2.10;;;;;;;;;;6156366;23;20120;-63
2023/11/05 06:47:13;;;;;;;4.95;2.10;;;;;;;;;;6163359;23;20191;-67
2023/11/05 06:49:40;;;;;;;6.25;2.53;;;;;;;;;;6163912;23;20100;-66
2023/11/05 06:52:15;;;;;;;6.57;1.88;;;;;;;;;;6164220;23;20028;-66
2023/11/05 06:54:41;;;;;;;6.82;2.53;;;;;;;;;;6159042;23;20064;-66
2023/11/05 06:57:09;;;;;;;10.82;3.40;;;;;;;;;;6165123;23;20083;-65
2023/11/05 06:59:35;;;;;;;10.88;3.70;;;;;;;;;;6165876;23;20028;-66
2023/11/05 07:02:03;;;;;;;8.82;4.25;;;;;;;;;;6166467;23;20032;-67
2023/11/05 07:04:38;;;;;;;10.32;4.45;;;;;;;;;;6159021;23;20048;-66
2023/11/05 07:07:11;;;;;;;9.73;3.90;;;;;;;;;;6166518;23;20120;-66
2023/11/05 07:09:38;;;;;;;9.68;2.85;;;;;;;;;;6165558;23;20147;-66
2023/11/05 07:12:11;;;;;;;6.53;2.08;;;;;;;;;;6164266;23;20021;-67
2023/11/05 07:14:37;;;;;;;9.98;2.50;;;;;;;;;;6120808;23;20048;-67
2023/11/05 07:17:05;;;;;;;9.27;2.78;;;;;;;;;;6166050;23;20207;-66
2023/11/05 07:19:31;;;;;;;12.98;2.88;;;;;;;;;;6165514;23;20060;-67
2023/11/05 07:22:01;;;;;;;6.07;2.30;;;;;;;;;;6168640;23;20035;-67
2023/11/05 07:24:29;;;;;;;6.70;2.33;;;;;;;;;;6125862;23;20025;-68
2023/11/05 07:26:57;;;;;;;10.05;3.67;;;;;;;;;;6180229;23;20036;-67
2023/11/05 07:29:24;;;;;;;12.02;4.60;;;;;;;;;;6167763;23;20021;-66
2023/11/05 07:31:51;;;;;;;8.48;4.05;;;;;;;;;;6191824;23;20048;-68
2023/11/05 07:34:18;;;;;;;12.40;5.53;;;;;;;;;;6143352;23;20024;-68
2023/11/05 07:36:44;;;;;;;9.27;4.03;;;;;;;;;;6172669;23;20031;-65
2023/11/05 07:39:11;;;;;;;9.55;3.60;;;;;;;;;;6196335;23;20021;-68
2023/11/05 07:41:41;;;;;;;5.60;2.38;;;;;;;;;;6171808;23;20024;-67
2023/11/05 07:44:15;;;;;;;5.80;1.67;;;;;;;;;;6125380;23;20105;-65
2023/11/05 07:46:41;;;;;;;4.82;1.50;;;;;;;;;;6159183;23;20027;-65
2023/11/05 07:49:09;;;;;;;4.25;1.45;;;;;;;;;;6170287;23;20027;-65
2023/11/05 07:51:37;;;;;;;2.90;0.90;;;;;;;;;;6194944;23;20020;-68
2023/11/05 07:54:04;;;;;;;4.40;1.30;;;;;;;;;;6148831;23;20108;-67
2023/11/05 07:56:31;;;;;;;3.15;1.30;;;;;;;;;;6186269;23;22176;-67
2023/11/05 07:58:59;;;;;;;5.35;1.35;;;;;;;;;;6168413;23;20032;-67
2023/11/05 08:01:26;;;;;;;3.53;1.30;;;;;;;;;;6167940;23;20072;-65
2023/11/05 08:03:53;;;;;;;4.65;1.00;;;;;;;;;;6168054;23;20020;-64
2023/11/05 08:06:20;;;;;;;2.85;0.82;;;;;;;;;;6168809;23;20024;-63
2023/11/05 08:08:47;;;;;;;4.90;1.17;;;;;;;;;;6195282;23;20334;-64
2023/11/05 08:11:17;;;;;;;4.03;1.10;;;;;;;;;;6170871;23;20443;-63
2023/11/05 08:13:44;;;;;;;4.72;1.02;;;;;;;;;;6136911;23;20067;-65
2023/11/05 08:16:12;;;;;;;4.80;0.95;;;;;;;;;;6164079;23;20048;-65
2023/11/05 08:18:39;;;;;;;5.03;1.20;;;;;;;;;;6161676;23;20132;-66
2023/11/05 08:21:08;;;;;;;6.28;1.27;;;;;;;;;;6169025;23;20021;-64
2023/11/05 08:23:35;;;;;;;;;;;;;;;;;;6193436;23;20020;-65
2023/11/05 08:26:01;;;;;;;4.88;1.10;;;;;;;;;;6193233;23;19919;-65
2023/11/05 08:28:28;;;;;;;4.03;0.90;;;;;;;;;;6158915;23;20512;-65
2023/11/05 08:30:55;;;;;;;5.85;1.30;;;;;;;;;;6174194;23;20056;-64
2023/11/05 08:33:23;;;;;;;5.70;1.23;;;;;;;;;;6168548;23;20055;-65
2023/11/05 08:35:51;;;;;;;6.85;1.30;;;;;;;;;;6132366;23;20024;-64
2023/11/05 08:38:18;;;;;;;4.32;1.13;;;;;;;;;;6165225;23;20411;-64
2023/11/05 08:40:45;;;;;;;4.70;1.08;;;;;;;;;;6166704;23;20055;-65
2023/11/05 08:43:11;;;;;;;7.20;1.00;;;;;;;;;;6168814;23;20021;-65
2023/11/05 08:45:38;;;;;;;6.88;1.30;;;;;;;;;;6153891;23;20020;-66
2023/11/05 08:48:06;;;;;;;3.88;1.13;;;;;;;;;;6172820;23;20028;-64
2023/11/05 08:50:34;;;;;;;5.30;1.40;;;;;;;;;;6192220;23;20024;-67
2023/11/05 08:53:01;;;;;;;8.70;1.80;;;;;;;;;;6171577;23;20024;-69
2023/11/05 08:55:29;;;;;;;3.40;1.20;;;;;;;;;;6105235;23;20084;-66
2023/11/05 08:57:57;;;;;;;4.50;1.08;;;;;;;;;;6169055;23;20028;-67
2023/11/05 09:00:28;;;;;;;8.73;1.25;;;;;;;;;;6190223;23;20036;-64
2023/11/05 09:02:55;;;;;;;3.70;1.42;;;;;;;;;;6170683;23;20090;-64
2023/11/05 09:05:25;;;;;;;3.47;1.10;;;;;;;;;;6162656;23;20079;-64
2023/11/05 09:07:58;;;;;;;3.42;1.08;;;;;;;;;;6168906;23;20026;-65
2023/11/05 09:10:27;;;;;;;5.95;1.73;;;;;;;;;;6165065;23;20251;-67
2023/11/05 09:13:04;;;;;;;9.73;1.98;;;;;;;;;;6172092;23;20020;-66
2023/11/05 09:15:31;;;;;;;9.88;2.65;;;;;;;;;;6109044;23;20025;-65
2023/11/05 09:17:58;;;;;;;5.60;2.25;;;;;;;;;;6169221;23;20201;-65
2023/11/05 09:20:24;;;;;;;12.52;3.38;;;;;;;;;;6160954;23;20360;-66
2023/11/05 09:22:53;;;;;;;8.45;1.85;;;;;;;;;;6175675;23;20028;-66
2023/11/05 09:25:21;;;;;;;6.93;2.03;;;;;;;;;;6131697;23;20029;-67
2023/11/05 09:27:47;;;;;;;5.45;1.42;;;;;;;;;;6168387;23;20206;-67
2023/11/05 09:30:18;;;;;;;12.05;2.08;;;;;;;;;;6163719;23;20072;-68
2023/11/05 09:32:45;;;;;;;9.30;2.47;;;;;;;;;;6194345;23;20033;-67
2023/11/05 09:35:14;;;;;;;7.03;2.17;;;;;;;;;;6162275;23;20080;-66
2023/11/05 09:37:44;;;;;;;9.93;1.90;;;;;;;;;;6176033;23;20031;-67
2023/11/05 09:40:17;;;;;;;12.70;2.35;;;;;;;;;;6164614;23;20123;-66
2023/11/05 09:42:52;;;;;;;8.85;2.35;;;;;;;;;;6175341;23;20024;-66
2023/11/05 09:45:19;;;;;;;7.47;2.13;;;;;;;;;;6147331;23;20027;-66
2023/11/05 09:47:47;;;;;;;7.70;2.08;;;;;;;;;;6174743;23;20024;-67
2023/11/05 09:50:16;;;;;;;9.77;2.20;;;;;;;;;;6166727;23;20020;-66
2023/11/05 09:52:43;;;;;;;5.55;1.98;;;;;;;;;;6169744;23;20024;-66
2023/11/05 09:55:13;;;;;;;6.32;2.03;;;;;;;;;;6164397;23;20021;-65
2023/11/05 09:57:41;;;;;;;12.73;3.33;;;;;;;;;;6196032;23;20028;-66
2023/11/05 10:00:11;;;;;;;7.82;3.38;;;;;;;;;;6171423;23;20021;-66
2023/11/05 10:02:55;;;;;;;7.30;2.08;;;;;;;;;;6167203;23;20032;-67
2023/11/05 10:05:24;;;;;;;3.63;1.55;;;;;;;;;;6135172;23;20029;-65
2023/11/05 10:08:00;;;;;;;5.45;2.25;;;;;;;;;;6169548;23;20034;-67
2023/11/05 10:10:30;;;;;;;7.70;2.30;;;;;;;;;;6166813;23;20078;-66
2023/11/05 10:13:07;;;;;;;7.78;2.10;;;;;;;;;;6199281;23;20032;-68
2023/11/05 10:18:44;;;;;;;6.60;2.30;;;;;;;;;;6169813;23;20127;-67
2023/11/05 10:21:37;;;;;;;5.20;1.90;;;;;;;;;;6196259;23;20079;-66
2023/11/05 10:24:08;;;;;;;7.40;1.95;;;;;;;;;;6168398;23;20116;-67
2023/11/05 10:26:52;;;;;;;8.95;2.53;;;;;;;;;;6169548;23;20022;-67
2023/11/05 10:29:36;;;;;;;6.32;1.83;;;;;;;;;;6168624;23;20020;-69
2023/11/05 10:32:12;;;;;;;5.18;1.90;;;;;;;;;;6192542;23;20137;-67
2023/11/05 10:34:39;;;;;;;6.35;1.85;;;;;;;;;;6136111;23;20029;-66
2023/11/05 10:37:06;;;;;;;5.90;2.20;;;;;;;;;;6168398;23;20048;-68
2023/11/05 10:39:34;;;;;;;9.90;2.08;;;;;;;;;;6165193;23;20035;-67
2023/11/05 10:42:02;;;;;;;8.73;2.15;;;;;;;;;;6168147;23;20112;-69
2023/11/05 10:44:31;;;;;;;4.97;2.17;;;;;;;;;;6112967;23;20035;-68
2023/11/05 10:47:04;;;;;;;7.05;2.60;;;;;;;;;;6164702;23;20035;-67
2023/11/05 10:49:43;;;;;;;5.60;2.40;;;;;;;;;;6164506;23;20244;-67
2023/11/05 10:52:13;;;;;;;7.05;1.95;;;;;;;;;;6164789;23;20029;-67
2023/11/05 10:54:43;;;;;;;6.43;2.28;;;;;;;;;;6118762;23;20028;-67
2023/11/05 10:57:53;;;;;;;5.07;2.05;;;;;;;;;;6171320;23;20021;-69
2023/11/05 11:01:03;;;;;;;3.38;1.73;;;;;;;;;;6160982;23;20021;-66
2023/11/05 11:04:00;;;;;;;4.43;1.88;;;;;;;;;;6167284;23;20025;-65
2023/11/05 11:06:37;;;;;;;5.45;1.60;;;;;;;;;;6077579;23;20049;-67
2023/11/05 11:09:29;;;;;;;6.82;2.90;;;;;;;;;;6141347;23;20153;-70
2023/11/05 11:12:03;;;;;;;7.63;1.63;;;;;;;;;;6145895;23;20051;-67
2023/11/05 11:14:47;;;;;;;;;;;;;;;;;;;;;
2023/11/05 11:17:27;;;;;;;3.40;1.25;;;;;;;;;;6168967;23;20028;-68
2023/11/05 11:20:16;;;;;;;3.00;1.35;;;;;;;;;;6195259;23;20024;-67
2023/11/05 11:22:46;;;;;;;4.70;1.52;;;;;;;;;;6171795;23;20107;-66
2023/11/05 11:25:55;;;;;;;5.25;1.63;;;;;;;;;;6102089;23;20088;-69
2023/11/05 11:28:33;;;;;;;8.25;2.50;;;;;;;;;;6174465;23;20104;-67
2023/11/05 11:31:24;;;;;;;5.63;1.77;;;;;;;;;;6172390;23;20030;-68
2023/11/05 11:34:07;;;;;;;4.38;1.25;;;;;;;;;;6171990;23;20036;-68
2023/11/05 11:36:33;;;;;;;5.63;2.08;;;;;;;;;;6149831;23;20053;-67
2023/11/05 11:39:00;;;;;;;5.57;2.33;;;;;;;;;;6174771;23;20044;-68
2023/11/05 11:41:36;;;;;;;8.25;2.40;;;;;;;;;;6202920;23;20032;-67
2023/11/05 11:44:05;;;;;;;6.28;1.65;;;;;;;;;;6171084;23;20031;-67
2023/11/05 11:46:35;;;;;;;7.30;1.55;;;;;;;;;;6104499;23;20087;-67
2023/11/05 11:49:10;;;;;;;5.00;1.55;;;;;;;;;;6172380;23;20024;-67
2023/11/05 11:54:30;;;;;;;6.22;1.42;;;;;;;;;;6135839;23;20127;-69
2023/11/05 11:56:59;;;;;;;6.35;1.65;;;;;;;;;;6154380;23;20029;-64
2023/11/05 11:59:29;;;;;;;5.30;1.60;;;;;;;;;;6196463;23;20029;-65
2023/11/05 12:02:08;;;;;;;3.85;1.25;;;;;;;;;;6176476;23;20028;-67
2023/11/05 12:04:40;;;;;;;7.65;1.48;;;;;;;;;;6153232;23;20029;-67
2023/11/05 12:07:07;;;;;;;7.32;1.63;;;;;;;;;;6167780;23;20024;-67
2023/11/05 12:09:34;;;;;;;5.40;1.38;;;;;;;;;;6199352;23;20118;-66
2023/11/05 12:12:05;;;;;;;6.85;1.55;;;;;;;;;;6177065;23;20020;-65
2023/11/05 12:14:44;;;;;;;7.03;2.25;;;;;;;;;;6166255;23;20092;-64
2023/11/05 12:17:13;;;;;;;5.20;1.50;;;;;;;;;;6132281;23;20076;-64
2023/11/05 12:19:51;;;;;;;3.30;1.10;;;;;;;;;;6204046;23;20027;-65
2023/11/05 12:22:18;;;;;;;5.63;1.30;;;;;;;;;;6166524;23;20020;-67
2023/11/05 12:24:45;;;;;;;2.80;1.45;;;;;;;;;;6169459;23;20028;-67
2023/11/05 12:27:12;;;;;;;9.13;1.40;;;;;;;;;;6147255;23;20025;-68
2023/11/05 12:29:43;;;;;;;7.10;1.70;;;;;;;;;;6174078;23;20094;-65
2023/11/05 12:32:10;;;;;;;4.72;1.33;;;;;;;;;;6169318;23;20039;-63
2023/11/05 12:34:36;;;;;;;12.07;1.45;;;;;;;;;;6130306;23;20028;-66
2023/11/05 12:37:05;;;;;;;8.07;1.40;;;;;;;;;;6155050;23;20028;-66
2023/11/05 12:39:31;;;;;;;4.68;1.00;;;;;;;;;;6175853;23;20021;-69
2023/11/05 12:42:01;;;;;;;4.47;1.42;;;;;;;;;;6196242;23;20028;-64
2023/11/05 12:44:27;;;;;;;8.18;1.33;;;;;;;;;;6161464;23;20094;-64
2023/11/05 12:46:58;;;;;;;5.53;1.10;;;;;;;;;;6181844;23;20080;-68
2023/11/05 12:49:25;;;;;;;3.03;1.00;;;;;;;;;;6172348;23;20107;-67
2023/11/05 12:51:51;;;;;;;2.78;1.05;;;;;;;;;;6176115;23;20122;-64
2023/11/05 12:54:22;;;;;;;7.15;1.13;;;;;;;;;;6201281;23;20055;-67
2023/11/05 12:56:49;;;;;;;6.35;1.10;;;;;;;;;;6126470;23;20043;-70
2023/11/05 12:59:16;;;;;;;7.35;1.50;;;;;;;;;;6199509;23;20029;-64
2023/11/05 13:01:42;;;;;;;9.32;3.88;;;;;;;;;;6200301;23;20020;-66
2023/11/05 13:04:12;;;;;;;6.90;1.48;;;;;;;;;;6169819;23;20036;-65
2023/11/05 13:06:42;;;;;;;7.68;1.90;;;;;;;;;;6133440;23;20025;-65
2023/11/05 13:09:15;;;;;;;11.73;4.75;;;;;;;;;;6173227;23;20025;-65
2023/11/05 13:11:46;;;;;;;4.05;1.40;;;;;;;;;;6203788;23;20026;-65
2023/11/05 13:14:24;;;;;;;2.67;1.00;;;;;;;;;;6201349;23;20025;-64
2023/11/05 13:16:53;;;;;;;5.40;1.30;;;;;;;;;;6177925;23;20020;-64
2023/11/05 13:19:27;;;;;;;6.85;1.85;;;;;;;;;;6200332;23;20035;-65
2023/11/05 13:24:49;;;;;;;9.60;1.40;;;;;;;;;;6172151;23;20039;-66
2023/11/05 13:27:22;;;;;;;3.33;1.13;;;;;;;;;;6144288;23;20091;-65
2023/11/05 13:29:49;;;;;;;3.00;1.00;;;;;;;;;;6177411;23;20024;-65
2023/11/05 13:32:16;;;;;;;8.32;0.90;;;;;;;;;;6170038;23;20079;-65
2023/11/05 13:34:47;;;;;;;2.15;0.82;;;;;;;;;;6123735;23;20020;-64
2023/11/05 13:37:33;;;;;;;4.68;1.23;;;;;;;;;;6177547;23;20052;-65
2023/11/05 13:40:12;;;;;;;6.70;1.40;;;;;;;;;;6173057;23;20024;-65
2023/11/05 13:42:56;;;;;;;7.32;0.95;;;;;;;;;;6182078;23;20038;-65
2023/11/05 13:45:29;;;;;;;1.95;0.82;;;;;;;;;;6134450;23;20032;-64
2023/11/05 13:47:59;;;;;;;2.42;0.75;;;;;;;;;;6200897;23;20056;-65
2023/11/05 13:50:33;;;;;;;3.78;0.98;;;;;;;;;;6166523;23;20126;-66
2023/11/05 13:53:01;;;;;;;4.22;1.30;;;;;;;;;;6170509;23;20096;-65
2023/11/05 13:55:37;;;;;;;3.67;0.93;;;;;;;;;;6159305;23;20059;-64
2023/11/05 13:58:29;;;;;;;1.65;0.90;;;;;;;;;;6176255;23;20103;-65
2023/11/05 14:01:00;;;;;;;4.13;0.75;;;;;;;;;;6199211;23;20044;-65
2023/11/05 14:04:14;;;;;;;7.68;1.00;;;;;;;;;;6143908;23;20059;-64
2023/11/05 14:06:48;;;;;;;6.70;1.40;;;;;;;;;;6155557;23;20028;-65
2023/11/05 14:09:22;;;;;;;4.90;1.23;;;;;;;;;;6172700;23;20039;-64
2023/11/05 14:11:52;;;;;;;2.13;1.00;;;;;;;;;;6197127;23;20021;-64
2023/11/05 14:14:21;;;;;;;8.23;1.65;;;;;;;;;;6164545;23;20024;-63
2023/11/05 14:16:56;;;;;;;3.30;1.00;;;;;;;;;;6103031;23;20076;-64
2023/11/05 14:19:26;;;;;;;3.65;0.88;;;;;;;;;;6171775;23;20092;-65
2023/11/05 14:21:54;;;;;;;5.43;1.10;;;;;;;;;;6194190;23;20031;-64
2023/11/05 14:24:35;;;;;;;4.20;0.98;;;;;;;;;;6190115;23;20025;-64
2023/11/05 14:27:07;;;;;;;6.63;1.20;;;;;;;;;;6131474;23;20027;-63
2023/11/05 14:29:55;;;;;;;4.00;1.00;;;;;;;;;;6200512;23;20144;-64
2023/11/05 14:32:27;;;;;;;4.35;0.90;;;;;;;;;;6192650;23;20071;-64
2023/11/05 14:34:55;;;;;;;5.05;1.00;;;;;;;;;;6160409;23;20024;-63
2023/11/05 14:37:22;;;;;;;8.90;1.20;;;;;;;;;;6137188;23;20035;-64
2023/11/05 14:39:52;;;;;;;6.63;1.35;;;;;;;;;;6169101;23;20043;-65
2023/11/05 14:42:41;;;;;;;4.28;0.82;;;;;;;;;;6164644;23;20090;-63
2023/11/05 14:45:11;;;;;;;2.50;1.05;;;;;;;;;;6126926;23;20030;-62
2023/11/05 14:47:39;;;;;;;6.35;1.45;;;;;;;;;;6159593;23;20099;-66
2023/11/05 14:50:19;;;;;;;2.83;1.02;;;;;;;;;;6195589;23;20086;-63
2023/11/05 14:52:48;;;;;;;7.25;1.35;;;;;;;;;;6176847;23;20044;-64
2023/11/05 14:55:20;;;;;;;5.50;1.60;;;;;;;;;;6145945;23;20091;-65
2023/11/05 14:57:47;;;;;;;9.27;2.10;;;;;;;;;;6170093;23;20130;-64
2023/11/05 15:00:22;;;;;;;6.60;1.35;;;;;;;;;;6166468;23;20052;-64
2023/11/05 15:02:49;;;;;;;5.75;1.23;;;;;;;;;;6198871;23;20032;-63
2023/11/05 15:05:18;;;;;;;4.70;0.88;;;;;;;;;;6153757;23;20127;-65
2023/11/05 15:07:45;;;;;;;7.07;1.17;;;;;;;;;;6162750;23;20028;-64
2023/11/05 15:10:15;;;;;;;8.18;1.30;;;;;;;;;;6168677;23;20028;-66